createdAt,value
2023-05-24T00:04:37.029Z,65.58
2023-05-24T00:09:29.435Z,64.77
2023-05-24T00:14:19.224Z,64.85
2023-05-24T00:19:11.528Z,64.42
2023-05-24T00:24:01.347Z,65.12
2023-05-24T00:28:53.755Z,63.84
2023-05-24T00:33:43.554Z,63.67
2023-05-24T00:38:33.241Z,64.30
2023-05-24T00:43:22.897Z,64.06
2023-05-24T00:48:15.336Z,63.71
2023-05-24T00:53:06.098Z,64.10
2023-05-24T00:57:55.939Z,64.57
2023-05-24T01:02:48.552Z,64.22
2023-05-24T01:07:49.243Z,64.51
2023-05-24T01:12:44.683Z,64.27
2023-05-24T01:17:39.639Z,63.69
2023-05-24T01:22:42.515Z,65.69
2023-05-24T01:27:36.805Z,65.03
2023-05-24T01:32:26.883Z,65.01
2023-05-24T01:37:16.756Z,64.72
2023-05-24T01:42:10.762Z,64.85
2023-05-24T01:47:05.700Z,64.56
2023-05-24T01:51:57.583Z,64.23
2023-05-24T01:56:47.587Z,64.60
2023-05-24T02:01:38.010Z,64.57
2023-05-24T02:06:30.674Z,64.69
2023-05-24T02:11:20.277Z,64.39
2023-05-24T02:16:11.032Z,64.92
2023-05-24T02:21:01.090Z,65.09
2023-05-24T02:25:53.463Z,65.69
2023-05-24T02:30:45.204Z,66.33
2023-05-24T02:35:35.365Z,66.59
2023-05-24T02:40:25.092Z,65.20
2023-05-24T02:45:19.724Z,65.19
2023-05-24T02:50:09.999Z,65.56
2023-05-24T02:54:59.661Z,65.64
2023-05-24T02:59:50.304Z,65.83
2023-05-24T03:04:42.735Z,65.33
2023-05-24T03:09:34.812Z,66.44
2023-05-24T03:14:25.308Z,65.65
2023-05-24T03:19:15.306Z,65.85
2023-05-24T03:24:08.728Z,65.64
2023-05-24T03:28:59.150Z,65.36
2023-05-24T03:33:55.581Z,65.66
2023-05-24T03:38:45.881Z,65.73
2023-05-24T03:43:38.336Z,65.92
2023-05-24T03:48:31.384Z,66.20
2023-05-24T03:53:23.102Z,66.65
2023-05-24T03:58:13.245Z,66.98
2023-05-24T04:03:12.527Z,66.70
2023-05-24T04:08:03.247Z,66.89
2023-05-24T04:12:52.929Z,66.91
2023-05-24T04:17:42.814Z,67.67
2023-05-24T04:22:36.455Z,67.08
2023-05-24T04:27:26.369Z,67.13
2023-05-24T04:32:16.340Z,67.13
2023-05-24T04:37:08.186Z,67.34
2023-05-24T04:42:02.048Z,67.30
2023-05-24T04:46:51.769Z,67.53
2023-05-24T04:51:41.586Z,68.04
2023-05-24T04:56:31.429Z,67.99
2023-05-24T05:01:23.742Z,69.20
2023-05-24T05:06:16.478Z,70.23
2023-05-24T05:11:07.648Z,74.20
2023-05-24T05:15:57.507Z,71.35
2023-05-24T05:20:51.932Z,70.87
2023-05-24T05:25:41.949Z,72.90
2023-05-24T05:30:31.656Z,72.15
2023-05-24T05:35:21.485Z,75.10
2023-05-24T05:40:14.521Z,73.16
2023-05-24T05:45:04.372Z,72.91
2023-05-24T05:49:54.109Z,73.83
2023-05-24T05:54:43.786Z,75.50
2023-05-24T05:59:36.437Z,74.71
2023-05-24T06:04:26.075Z,73.95
2023-05-24T06:09:16.011Z,73.68
2023-05-24T06:14:05.749Z,74.27
2023-05-24T06:19:05.979Z,73.10
2023-05-24T06:23:58.408Z,73.50
2023-05-24T06:28:48.129Z,72.30
2023-05-24T06:33:38.410Z,72.62
2023-05-24T06:38:33.189Z,72.98
2023-05-24T06:43:22.867Z,70.82
2023-05-24T06:48:12.503Z,72.95
2023-05-24T06:53:03.088Z,72.09
2023-05-24T06:57:55.476Z,71.68
2023-05-24T07:02:45.216Z,71.54
2023-05-24T07:07:35.273Z,70.14
2023-05-24T07:12:24.994Z,71.41
2023-05-24T07:17:17.515Z,69.58
2023-05-24T07:22:07.579Z,70.93
2023-05-24T07:26:57.835Z,69.89
2023-05-24T07:31:48.561Z,69.69
2023-05-24T07:36:41.138Z,68.93
2023-05-24T07:41:30.893Z,67.55
2023-05-24T07:46:20.572Z,68.14
2023-05-24T07:51:10.736Z,66.81
2023-05-24T07:56:02.921Z,68.03
2023-05-24T08:00:52.599Z,66.51
2023-05-24T08:05:43.750Z,66.42
2023-05-24T08:10:33.854Z,66.16
2023-05-24T08:36:54.008Z,62.00
2023-05-24T08:41:47.404Z,62.31
2023-05-24T08:46:42.100Z,62.21
2023-05-24T08:51:32.676Z,59.80
2023-05-24T08:56:26.651Z,61.09
2023-05-24T09:01:17.799Z,60.82
2023-05-24T09:06:08.284Z,60.91
2023-05-24T09:10:59.592Z,60.45
2023-05-24T09:15:52.303Z,60.83
2023-05-24T09:20:42.422Z,60.62
2023-05-24T09:25:32.568Z,58.98
2023-05-24T09:30:22.887Z,57.42
2023-05-24T09:35:15.116Z,59.24
2023-05-24T09:40:07.405Z,56.90
2023-05-24T09:45:05.182Z,55.41
2023-05-24T09:49:55.061Z,53.25
2023-05-24T09:54:48.300Z,54.52
2023-05-24T09:59:38.419Z,58.13
2023-05-24T10:04:35.937Z,57.41
2023-05-24T10:09:25.872Z,57.75
2023-05-24T10:14:19.051Z,57.07
2023-05-24T10:19:10.080Z,50.29
2023-05-24T10:24:02.623Z,53.07
2023-05-24T10:28:55.380Z,51.39
2023-05-24T10:33:49.303Z,52.30
2023-05-24T10:38:42.023Z,52.07
2023-05-24T10:43:32.169Z,53.48
2023-05-24T10:48:37.416Z,51.13
2023-05-24T10:53:30.279Z,50.80
2023-05-24T10:58:24.656Z,49.99
2023-05-24T11:03:23.919Z,50.68
2023-05-24T11:08:15.248Z,49.92
2023-05-24T11:13:11.070Z,50.82
2023-05-24T11:18:16.434Z,51.72
2023-05-24T11:23:06.544Z,50.68
2023-05-24T11:27:56.387Z,52.11
2023-05-24T11:32:50.500Z,51.34
2023-05-24T11:42:35.222Z,51.98
2023-05-24T11:47:25.189Z,51.47
2023-05-24T11:52:17.582Z,51.53
2023-05-24T11:57:08.567Z,52.20
2023-05-24T12:02:02.932Z,50.15
2023-05-24T12:06:52.661Z,50.50
2023-05-24T12:11:45.756Z,49.09
2023-05-24T12:16:35.810Z,49.12
2023-05-24T12:21:25.830Z,50.47
2023-05-24T12:26:16.653Z,50.05
2023-05-24T12:31:10.456Z,50.84
2023-05-24T12:36:00.495Z,50.03
2023-05-24T12:41:00.059Z,49.22
2023-05-24T12:46:00.479Z,50.50
2023-05-24T12:50:52.850Z,50.06
2023-05-24T12:55:42.966Z,50.14
2023-05-24T13:00:32.648Z,49.42
2023-05-24T13:05:22.724Z,50.52
2023-05-24T13:10:15.550Z,52.05
2023-05-24T13:15:05.173Z,50.35
2023-05-24T13:19:55.789Z,50.36
2023-05-24T13:24:45.525Z,49.43
2023-05-24T13:29:48.871Z,49.41
2023-05-24T13:34:47.670Z,51.77
2023-05-24T13:39:37.301Z,51.13
2023-05-24T13:44:26.957Z,52.15
2023-05-24T13:49:19.036Z,52.93
2023-05-24T13:54:09.005Z,52.11
2023-05-24T13:58:58.551Z,52.37
2023-05-24T14:03:48.143Z,52.92
2023-05-24T14:08:40.408Z,52.38
2023-05-24T14:18:22.538Z,52.75
2023-05-24T14:23:12.315Z,52.91
2023-05-24T14:28:04.794Z,51.34
2023-05-24T14:32:54.412Z,51.51
2023-05-24T14:37:44.002Z,53.41
2023-05-24T14:42:33.951Z,53.67
2023-05-24T14:47:26.101Z,51.95
2023-05-24T14:52:16.195Z,52.84
2023-05-24T14:57:07.510Z,53.20
2023-05-24T15:01:57.097Z,52.14
2023-05-24T15:06:49.259Z,51.26
2023-05-24T15:11:39.413Z,51.01
2023-05-24T15:16:29.156Z,51.57
2023-05-24T15:21:18.866Z,52.04
2023-05-24T15:26:11.337Z,51.78
2023-05-24T15:31:03.866Z,53.11
2023-05-24T15:35:53.481Z,51.63
2023-05-24T15:40:44.359Z,52.01
2023-05-24T15:45:36.866Z,53.15
2023-05-24T15:50:47.596Z,52.55
2023-05-24T15:55:37.444Z,52.23
2023-05-24T16:00:27.144Z,52.38
2023-05-24T16:05:21.245Z,52.10
2023-05-24T16:10:11.085Z,51.79
2023-05-24T16:15:00.805Z,52.52
2023-05-24T16:19:50.375Z,52.09
2023-05-24T16:24:42.668Z,51.91
2023-05-24T16:29:32.297Z,51.39
2023-05-24T16:34:23.786Z,52.81
2023-05-24T16:39:13.451Z,51.83
2023-05-24T16:44:05.916Z,51.72
2023-05-24T16:48:55.766Z,50.65
2023-05-24T16:53:45.329Z,50.37
2023-05-24T16:58:34.913Z,51.30
2023-05-24T17:03:29.265Z,51.34
2023-05-24T17:08:21.062Z,51.84
2023-05-24T17:13:10.818Z,50.79
2023-05-24T17:18:00.614Z,52.14
2023-05-24T17:22:52.900Z,51.57
2023-05-24T17:27:42.608Z,52.70
2023-05-24T17:32:32.242Z,52.37
2023-05-24T17:37:21.804Z,52.08
2023-05-24T17:42:14.091Z,51.88
2023-05-24T17:47:04.729Z,52.19
2023-05-24T17:51:54.328Z,52.87
2023-05-24T17:56:43.960Z,52.83
2023-05-24T18:01:36.651Z,52.67
2023-05-24T18:06:26.500Z,53.33
2023-05-24T18:11:16.534Z,54.28
2023-05-24T18:16:08.171Z,54.71
2023-05-24T18:21:00.529Z,54.76
2023-05-24T18:25:50.122Z,55.70
2023-05-24T18:30:53.491Z,55.82
2023-05-24T18:35:43.651Z,56.09
2023-05-24T18:40:36.180Z,55.46
2023-05-24T18:45:25.914Z,55.97
2023-05-24T18:50:15.680Z,56.15
2023-05-24T18:55:10.882Z,56.21
2023-05-24T19:00:03.425Z,56.35
2023-05-24T19:04:53.222Z,56.83
2023-05-24T19:09:42.894Z,56.63
2023-05-24T19:14:32.990Z,57.53
2023-05-24T19:19:27.324Z,57.98
2023-05-24T19:24:17.132Z,57.92
2023-05-24T19:29:06.838Z,58.43
2023-05-24T19:34:00.402Z,58.36
2023-05-24T19:38:54.844Z,58.76
2023-05-24T19:43:44.565Z,58.89
2023-05-24T19:48:34.266Z,59.12
2023-05-24T19:53:23.906Z,59.72
2023-05-24T19:58:16.144Z,59.45
2023-05-24T20:03:06.337Z,59.06
2023-05-24T20:07:56.318Z,60.04
2023-05-24T20:12:46.204Z,60.02
2023-05-24T20:17:38.588Z,59.96
2023-05-24T20:22:28.445Z,60.89
2023-05-24T20:27:18.265Z,61.14
2023-05-24T20:32:08.404Z,61.84
2023-05-24T20:37:00.778Z,62.56
2023-05-24T20:41:50.549Z,63.27
2023-05-24T20:46:40.276Z,61.87
2023-05-24T20:51:29.995Z,62.29
2023-05-24T20:56:23.211Z,62.21
2023-05-24T21:01:13.012Z,61.65
2023-05-24T21:06:02.824Z,62.68
2023-05-24T21:10:55.813Z,62.37
2023-05-24T21:15:48.328Z,62.99
2023-05-24T21:20:38.166Z,62.58
2023-05-24T21:25:28.018Z,64.46
2023-05-24T21:30:18.014Z,64.77
2023-05-24T21:35:12.987Z,63.64
2023-05-24T21:40:02.568Z,63.52
2023-05-24T21:44:52.225Z,64.45
2023-05-24T21:49:42.149Z,64.38
2023-05-24T21:54:35.652Z,64.23
2023-05-24T21:59:25.353Z,64.30
2023-05-24T22:04:15.247Z,65.10
2023-05-24T22:09:05.059Z,65.56
2023-05-24T22:13:57.637Z,65.56
2023-05-24T22:18:48.280Z,65.57
2023-05-24T22:23:37.878Z,64.99
2023-05-24T22:28:27.481Z,65.63
2023-05-24T22:33:20.242Z,66.91
2023-05-24T22:38:10.010Z,67.11
2023-05-24T22:42:59.793Z,66.37
2023-05-24T22:47:50.084Z,66.71
2023-05-24T22:52:42.809Z,66.50
2023-05-24T22:57:32.694Z,67.17
2023-05-24T23:02:22.459Z,68.07
2023-05-24T23:07:13.679Z,67.72
2023-05-24T23:12:08.437Z,67.26
2023-05-24T23:17:02.729Z,66.94
2023-05-24T23:21:52.758Z,68.84
2023-05-24T23:26:43.798Z,67.69
2023-05-24T23:31:36.184Z,68.40
2023-05-24T23:36:26.029Z,68.12
2023-05-24T23:41:15.901Z,67.33
2023-05-24T23:46:06.776Z,68.74
2023-05-24T23:50:59.300Z,67.76
2023-05-24T23:55:48.953Z,67.53
